Osage Beach, Missouri
Current Conditions -  °F | °C
As of 10:35 AM on Tuesday 21 Oct 2014 (Local Time) from KAIZ Reporting Station
Clear Clear  
Wind Chill: 61°   Ceiling: Unl
Heat Index: 61°   Visibility: 9mi
Dew Point: 48°   Wind: 3mph
Humidity: 63%   Direction: 260°W
Pressure: 30.15"   Gusts: NA
Location:  38.15°N, 92.62°W
Report Text: KAIZ 211535Z AUTO 26003KT 9SM CLR 16/09 A3015 RMK AO1
Loading
Personal Weather Stations






























Interactive Weather Map
Tropical Storm Tracking
New forecast layout! Learn more

10-Day Weather Forecast

Advertisements
Track Severe Weather on mobile